sensor_id;sensor_type;location;lat;lon;timestamp;P1;durP1;ratioP1;P2;durP2;ratioP2
55222;SDS011;41090;48.632;12.428;2023-11-19T00:00:48;17.53;;;11.37;;
55222;SDS011;41090;48.632;12.428;2023-11-19T00:03:13;9.40;;;7.47;;
55222;SDS011;41090;48.632;12.428;2023-11-19T00:05:41;3.60;;;3.30;;
55222;SDS011;41090;48.632;12.428;2023-11-19T00:08:06;10.90;;;7.97;;
55222;SDS011;41090;48.632;12.428;2023-11-19T00:10:33;10.57;;;7.63;;
55222;SDS011;41090;48.632;12.428;2023-11-19T00:12:59;5.77;;;4.20;;
55222;SDS011;41090;48.632;12.428;2023-11-19T00:15:24;3.47;;;3.20;;
55222;SDS011;41090;48.632;12.428;2023-11-19T00:17:50;4.00;;;3.27;;
55222;SDS011;41090;48.632;12.428;2023-11-19T00:20:16;3.40;;;3.20;;
55222;SDS011;41090;48.632;12.428;2023-11-19T00:22:42;13.20;;;8.47;;
55222;SDS011;41090;48.632;12.428;2023-11-19T00:25:08;25.20;;;13.73;;
55222;SDS011;41090;48.632;12.428;2023-11-19T00:27:33;16.23;;;11.47;;
55222;SDS011;41090;48.632;12.428;2023-11-19T00:29:58;9.07;;;6.70;;
55222;SDS011;41090;48.632;12.428;2023-11-19T00:32:24;16.57;;;9.80;;
55222;SDS011;41090;48.632;12.428;2023-11-19T00:34:49;13.33;;;8.17;;
55222;SDS011;41090;48.632;12.428;2023-11-19T00:37:15;3.83;;;3.53;;
55222;SDS011;41090;48.632;12.428;2023-11-19T00:39:43;11.37;;;7.67;;
55222;SDS011;41090;48.632;12.428;2023-11-19T00:42:09;7.57;;;5.73;;
55222;SDS011;41090;48.632;12.428;2023-11-19T00:44:35;10.87;;;7.10;;
55222;SDS011;41090;48.632;12.428;2023-11-19T00:47:00;4.30;;;3.40;;
55222;SDS011;41090;48.632;12.428;2023-11-19T00:49:25;5.73;;;4.43;;
55222;SDS011;41090;48.632;12.428;2023-11-19T00:51:53;5.07;;;3.90;;
55222;SDS011;41090;48.632;12.428;2023-11-19T00:54:19;5.73;;;4.40;;
55222;SDS011;41090;48.632;12.428;2023-11-19T00:56:44;4.30;;;3.70;;
55222;SDS011;41090;48.632;12.428;2023-11-19T00:59:10;5.93;;;4.27;;
55222;SDS011;41090;48.632;12.428;2023-11-19T01:01:35;4.13;;;3.60;;
55222;SDS011;41090;48.632;12.428;2023-11-19T01:04:00;5.57;;;4.07;;
55222;SDS011;41090;48.632;12.428;2023-11-19T01:06:26;6.43;;;4.23;;
55222;SDS011;41090;48.632;12.428;2023-11-19T01:08:52;3.57;;;2.83;;
55222;SDS011;41090;48.632;12.428;2023-11-19T01:11:21;2.40;;;2.20;;
55222;SDS011;41090;48.632;12.428;2023-11-19T01:13:46;2.30;;;2.10;;
55222;SDS011;41090;48.632;12.428;2023-11-19T01:16:12;2.50;;;2.30;;
55222;SDS011;41090;48.632;12.428;2023-11-19T01:18:38;2.50;;;2.30;;
55222;SDS011;41090;48.632;12.428;2023-11-19T01:21:03;2.33;;;2.13;;
55222;SDS011;41090;48.632;12.428;2023-11-19T01:23:28;2.10;;;2.00;;
55222;SDS011;41090;48.632;12.428;2023-11-19T01:25:54;2.30;;;2.10;;
55222;SDS011;41090;48.632;12.428;2023-11-19T01:28:19;2.27;;;2.10;;
55222;SDS011;41090;48.632;12.428;2023-11-19T01:30:44;2.03;;;1.93;;
55222;SDS011;41090;48.632;12.428;2023-11-19T01:33:09;1.90;;;1.80;;
55222;SDS011;41090;48.632;12.428;2023-11-19T01:35:34;2.00;;;1.90;;
55222;SDS011;41090;48.632;12.428;2023-11-19T01:38:00;2.20;;;2.00;;
55222;SDS011;41090;48.632;12.428;2023-11-19T01:40:25;2.07;;;1.97;;
55222;SDS011;41090;48.632;12.428;2023-11-19T01:42:50;2.37;;;2.17;;
55222;SDS011;41090;48.632;12.428;2023-11-19T01:45:22;1.90;;;1.80;;
55222;SDS011;41090;48.632;12.428;2023-11-19T01:47:51;2.00;;;1.90;;
55222;SDS011;41090;48.632;12.428;2023-11-19T01:50:17;2.23;;;2.10;;
55222;SDS011;41090;48.632;12.428;2023-11-19T01:52:42;2.00;;;1.90;;
55222;SDS011;41090;48.632;12.428;2023-11-19T01:55:07;2.20;;;2.10;;
55222;SDS011;41090;48.632;12.428;2023-11-19T01:57:34;2.03;;;1.93;;
55222;SDS011;41090;48.632;12.428;2023-11-19T02:00:02;2.10;;;1.90;;
55222;SDS011;41090;48.632;12.428;2023-11-19T02:02:28;2.07;;;1.90;;
55222;SDS011;41090;48.632;12.428;2023-11-19T02:04:53;2.23;;;2.03;;
55222;SDS011;41090;48.632;12.428;2023-11-19T02:07:19;2.10;;;2.00;;
55222;SDS011;41090;48.632;12.428;2023-11-19T02:09:44;2.43;;;2.23;;
55222;SDS011;41090;48.632;12.428;2023-11-19T02:12:09;2.07;;;1.97;;
55222;SDS011;41090;48.632;12.428;2023-11-19T02:14:36;2.47;;;2.27;;
55222;SDS011;41090;48.632;12.428;2023-11-19T02:17:02;2.57;;;2.37;;
55222;SDS011;41090;48.632;12.428;2023-11-19T02:19:27;2.40;;;2.20;;
55222;SDS011;41090;48.632;12.428;2023-11-19T02:21:53;2.40;;;2.30;;
55222;SDS011;41090;48.632;12.428;2023-11-19T02:24:20;2.60;;;2.40;;
55222;SDS011;41090;48.632;12.428;2023-11-19T02:29:12;2.60;;;2.40;;
55222;SDS011;41090;48.632;12.428;2023-11-19T02:31:38;2.30;;;2.10;;
55222;SDS011;41090;48.632;12.428;2023-11-19T02:34:03;2.50;;;2.30;;
55222;SDS011;41090;48.632;12.428;2023-11-19T02:36:28;2.60;;;2.40;;
55222;SDS011;41090;48.632;12.428;2023-11-19T02:38:54;2.83;;;2.60;;
55222;SDS011;41090;48.632;12.428;2023-11-19T02:41:20;2.50;;;2.30;;
55222;SDS011;41090;48.632;12.428;2023-11-19T02:43:45;2.60;;;2.37;;
55222;SDS011;41090;48.632;12.428;2023-11-19T02:46:10;2.70;;;2.50;;
55222;SDS011;41090;48.632;12.428;2023-11-19T02:48:36;3.27;;;2.40;;
55222;SDS011;41090;48.632;12.428;2023-11-19T02:51:01;2.60;;;2.40;;
55222;SDS011;41090;48.632;12.428;2023-11-19T02:53:28;2.60;;;2.40;;
55222;SDS011;41090;48.632;12.428;2023-11-19T02:55:54;2.63;;;2.43;;
55222;SDS011;41090;48.632;12.428;2023-11-19T02:58:25;2.30;;;2.20;;
55222;SDS011;41090;48.632;12.428;2023-11-19T03:00:53;2.60;;;2.40;;
55222;SDS011;41090;48.632;12.428;2023-11-19T03:03:34;2.50;;;2.30;;
55222;SDS011;41090;48.632;12.428;2023-11-19T03:06:06;2.20;;;2.00;;
55222;SDS011;41090;48.632;12.428;2023-11-19T03:08:32;2.30;;;2.10;;
55222;SDS011;41090;48.632;12.428;2023-11-19T03:10:58;2.70;;;2.10;;
55222;SDS011;41090;48.632;12.428;2023-11-19T03:13:24;2.20;;;2.03;;
55222;SDS011;41090;48.632;12.428;2023-11-19T03:15:49;2.30;;;2.20;;
55222;SDS011;41090;48.632;12.428;2023-11-19T03:18:14;1.97;;;1.87;;
55222;SDS011;41090;48.632;12.428;2023-11-19T03:20:40;1.90;;;1.80;;
55222;SDS011;41090;48.632;12.428;2023-11-19T03:23:05;2.10;;;1.97;;
55222;SDS011;41090;48.632;12.428;2023-11-19T03:25:31;1.90;;;1.80;;
55222;SDS011;41090;48.632;12.428;2023-11-19T03:28:01;1.90;;;1.80;;
55222;SDS011;41090;48.632;12.428;2023-11-19T03:30:27;2.03;;;1.93;;
55222;SDS011;41090;48.632;12.428;2023-11-19T03:32:53;1.80;;;1.70;;
55222;SDS011;41090;48.632;12.428;2023-11-19T03:35:18;2.20;;;2.10;;
55222;SDS011;41090;48.632;12.428;2023-11-19T03:37:44;1.90;;;1.80;;
55222;SDS011;41090;48.632;12.428;2023-11-19T03:40:09;1.97;;;1.87;;
55222;SDS011;41090;48.632;12.428;2023-11-19T03:42:35;2.20;;;2.10;;
55222;SDS011;41090;48.632;12.428;2023-11-19T03:45:00;2.23;;;2.10;;
55222;SDS011;41090;48.632;12.428;2023-11-19T03:47:25;1.90;;;1.80;;
55222;SDS011;41090;48.632;12.428;2023-11-19T03:49:51;2.30;;;2.20;;
55222;SDS011;41090;48.632;12.428;2023-11-19T03:52:16;1.87;;;1.77;;
55222;SDS011;41090;48.632;12.428;2023-11-19T03:54:42;1.90;;;1.80;;
55222;SDS011;41090;48.632;12.428;2023-11-19T03:57:07;2.40;;;2.20;;
55222;SDS011;41090;48.632;12.428;2023-11-19T03:59:32;2.03;;;1.90;;
55222;SDS011;41090;48.632;12.428;2023-11-19T04:01:58;2.23;;;2.07;;
55222;SDS011;41090;48.632;12.428;2023-11-19T04:04:25;2.30;;;2.10;;
55222;SDS011;41090;48.632;12.428;2023-11-19T04:06:50;2.00;;;1.90;;
55222;SDS011;41090;48.632;12.428;2023-11-19T04:09:16;2.10;;;2.00;;
55222;SDS011;41090;48.632;12.428;2023-11-19T04:11:41;2.37;;;2.13;;
55222;SDS011;41090;48.632;12.428;2023-11-19T04:14:06;2.30;;;2.10;;
55222;SDS011;41090;48.632;12.428;2023-11-19T04:16:31;2.33;;;2.13;;
55222;SDS011;41090;48.632;12.428;2023-11-19T04:18:57;3.27;;;2.30;;
55222;SDS011;41090;48.632;12.428;2023-11-19T04:21:22;2.50;;;2.30;;
55222;SDS011;41090;48.632;12.428;2023-11-19T04:23:48;2.30;;;2.10;;
55222;SDS011;41090;48.632;12.428;2023-11-19T04:26:13;2.63;;;2.43;;
55222;SDS011;41090;48.632;12.428;2023-11-19T04:28:39;2.40;;;2.20;;
55222;SDS011;41090;48.632;12.428;2023-11-19T04:31:04;2.20;;;2.10;;
55222;SDS011;41090;48.632;12.428;2023-11-19T04:33:30;2.10;;;2.00;;
55222;SDS011;41090;48.632;12.428;2023-11-19T04:35:56;2.40;;;2.20;;
55222;SDS011;41090;48.632;12.428;2023-11-19T04:38:21;2.53;;;2.33;;
55222;SDS011;41090;48.632;12.428;2023-11-19T04:40:46;2.20;;;2.10;;
55222;SDS011;41090;48.632;12.428;2023-11-19T04:43:12;2.30;;;2.10;;
55222;SDS011;41090;48.632;12.428;2023-11-19T04:45:37;2.20;;;2.00;;
55222;SDS011;41090;48.632;12.428;2023-11-19T04:48:04;2.30;;;2.10;;
55222;SDS011;41090;48.632;12.428;2023-11-19T04:50:29;2.50;;;2.30;;
55222;SDS011;41090;48.632;12.428;2023-11-19T04:52:55;2.30;;;2.10;;
55222;SDS011;41090;48.632;12.428;2023-11-19T04:55:20;2.23;;;2.03;;
55222;SDS011;41090;48.632;12.428;2023-11-19T04:57:46;1.97;;;1.87;;
55222;SDS011;41090;48.632;12.428;2023-11-19T05:00:11;2.30;;;2.10;;
55222;SDS011;41090;48.632;12.428;2023-11-19T05:02:36;2.10;;;2.00;;
55222;SDS011;41090;48.632;12.428;2023-11-19T05:05:02;2.20;;;2.00;;
55222;SDS011;41090;48.632;12.428;2023-11-19T05:07:29;2.40;;;2.20;;
55222;SDS011;41090;48.632;12.428;2023-11-19T05:09:54;2.00;;;1.90;;
55222;SDS011;41090;48.632;12.428;2023-11-19T05:12:20;2.47;;;2.27;;
55222;SDS011;41090;48.632;12.428;2023-11-19T05:14:46;2.30;;;2.20;;
55222;SDS011;41090;48.632;12.428;2023-11-19T05:17:14;2.53;;;2.30;;
55222;SDS011;41090;48.632;12.428;2023-11-19T05:19:40;3.33;;;2.10;;
55222;SDS011;41090;48.632;12.428;2023-11-19T05:22:05;2.57;;;2.37;;
55222;SDS011;41090;48.632;12.428;2023-11-19T05:24:31;2.33;;;2.13;;
55222;SDS011;41090;48.632;12.428;2023-11-19T05:26:56;2.60;;;2.40;;
55222;SDS011;41090;48.632;12.428;2023-11-19T05:29:23;2.30;;;2.10;;
55222;SDS011;41090;48.632;12.428;2023-11-19T05:31:48;2.40;;;2.20;;
55222;SDS011;41090;48.632;12.428;2023-11-19T05:34:14;2.60;;;2.40;;
55222;SDS011;41090;48.632;12.428;2023-11-19T05:36:40;2.57;;;2.37;;
55222;SDS011;41090;48.632;12.428;2023-11-19T05:39:05;2.50;;;2.30;;
55222;SDS011;41090;48.632;12.428;2023-11-19T05:41:30;2.60;;;2.40;;
55222;SDS011;41090;48.632;12.428;2023-11-19T05:43:56;2.53;;;2.33;;
55222;SDS011;41090;48.632;12.428;2023-11-19T05:46:21;2.47;;;2.30;;
55222;SDS011;41090;48.632;12.428;2023-11-19T05:48:47;2.30;;;2.10;;
55222;SDS011;41090;48.632;12.428;2023-11-19T05:51:12;2.73;;;2.53;;
55222;SDS011;41090;48.632;12.428;2023-11-19T05:53:39;2.70;;;2.50;;
55222;SDS011;41090;48.632;12.428;2023-11-19T05:56:05;2.40;;;2.20;;
55222;SDS011;41090;48.632;12.428;2023-11-19T05:58:32;2.57;;;2.37;;
55222;SDS011;41090;48.632;12.428;2023-11-19T06:00:58;2.30;;;2.20;;
55222;SDS011;41090;48.632;12.428;2023-11-19T06:03:25;2.60;;;2.40;;
55222;SDS011;41090;48.632;12.428;2023-11-19T06:05:51;2.30;;;2.20;;
55222;SDS011;41090;48.632;12.428;2023-11-19T06:08:16;2.60;;;2.40;;
55222;SDS011;41090;48.632;12.428;2023-11-19T06:10:42;2.70;;;2.50;;
55222;SDS011;41090;48.632;12.428;2023-11-19T06:13:07;2.50;;;2.30;;
55222;SDS011;41090;48.632;12.428;2023-11-19T06:15:35;2.33;;;2.23;;
55222;SDS011;41090;48.632;12.428;2023-11-19T06:18:04;2.77;;;2.57;;
55222;SDS011;41090;48.632;12.428;2023-11-19T06:20:30;2.20;;;2.00;;
55222;SDS011;41090;48.632;12.428;2023-11-19T06:22:56;2.57;;;2.37;;
55222;SDS011;41090;48.632;12.428;2023-11-19T06:25:23;3.53;;;3.23;;
55222;SDS011;41090;48.632;12.428;2023-11-19T06:27:49;2.93;;;2.73;;
55222;SDS011;41090;48.632;12.428;2023-11-19T06:30:14;2.67;;;2.47;;
55222;SDS011;41090;48.632;12.428;2023-11-19T06:32:39;4.67;;;2.70;;
55222;SDS011;41090;48.632;12.428;2023-11-19T06:35:05;3.50;;;3.00;;
55222;SDS011;41090;48.632;12.428;2023-11-19T06:37:30;3.13;;;2.93;;
55222;SDS011;41090;48.632;12.428;2023-11-19T06:39:56;3.80;;;3.50;;
55222;SDS011;41090;48.632;12.428;2023-11-19T06:42:24;3.63;;;3.33;;
55222;SDS011;41090;48.632;12.428;2023-11-19T06:44:50;3.80;;;3.50;;
55222;SDS011;41090;48.632;12.428;2023-11-19T06:47:16;3.80;;;3.50;;
55222;SDS011;41090;48.632;12.428;2023-11-19T06:49:43;4.40;;;4.00;;
55222;SDS011;41090;48.632;12.428;2023-11-19T06:52:08;5.37;;;4.90;;
55222;SDS011;41090;48.632;12.428;2023-11-19T06:54:34;5.97;;;5.47;;
55222;SDS011;41090;48.632;12.428;2023-11-19T06:56:59;4.33;;;4.03;;
55222;SDS011;41090;48.632;12.428;2023-11-19T06:59:24;4.07;;;3.77;;
55222;SDS011;41090;48.632;12.428;2023-11-19T07:01:50;4.83;;;4.43;;
55222;SDS011;41090;48.632;12.428;2023-11-19T07:04:15;5.20;;;4.80;;
55222;SDS011;41090;48.632;12.428;2023-11-19T07:06:40;5.50;;;5.10;;
55222;SDS011;41090;48.632;12.428;2023-11-19T07:09:06;6.83;;;6.30;;
55222;SDS011;41090;48.632;12.428;2023-11-19T07:11:38;6.37;;;5.87;;
55222;SDS011;41090;48.632;12.428;2023-11-19T07:14:04;6.50;;;5.90;;
55222;SDS011;41090;48.632;12.428;2023-11-19T07:16:30;5.73;;;5.23;;
55222;SDS011;41090;48.632;12.428;2023-11-19T07:18:56;7.00;;;6.40;;
55222;SDS011;41090;48.632;12.428;2023-11-19T07:21:21;6.30;;;5.70;;
55222;SDS011;41090;48.632;12.428;2023-11-19T07:23:47;6.70;;;6.10;;
55222;SDS011;41090;48.632;12.428;2023-11-19T07:26:15;6.73;;;6.13;;
55222;SDS011;41090;48.632;12.428;2023-11-19T07:28:40;7.17;;;6.37;;
55222;SDS011;41090;48.632;12.428;2023-11-19T07:31:06;5.80;;;5.30;;
55222;SDS011;41090;48.632;12.428;2023-11-19T07:33:34;5.83;;;5.33;;
55222;SDS011;41090;48.632;12.428;2023-11-19T07:35:59;5.23;;;4.83;;
55222;SDS011;41090;48.632;12.428;2023-11-19T07:38:25;5.60;;;5.10;;
55222;SDS011;41090;48.632;12.428;2023-11-19T07:40:50;5.80;;;5.30;;
55222;SDS011;41090;48.632;12.428;2023-11-19T07:43:15;8.10;;;7.40;;
55222;SDS011;41090;48.632;12.428;2023-11-19T07:45:41;5.40;;;5.00;;
55222;SDS011;41090;48.632;12.428;2023-11-19T07:48:08;5.00;;;4.60;;
55222;SDS011;41090;48.632;12.428;2023-11-19T07:50:34;5.77;;;5.27;;
55222;SDS011;41090;48.632;12.428;2023-11-19T07:52:59;5.47;;;5.07;;
55222;SDS011;41090;48.632;12.428;2023-11-19T07:55:25;5.33;;;4.90;;
55222;SDS011;41090;48.632;12.428;2023-11-19T07:58:01;5.40;;;5.00;;
55222;SDS011;41090;48.632;12.428;2023-11-19T08:00:26;4.87;;;4.47;;
55222;SDS011;41090;48.632;12.428;2023-11-19T08:02:51;5.10;;;4.70;;
55222;SDS011;41090;48.632;12.428;2023-11-19T08:05:17;5.20;;;4.80;;
55222;SDS011;41090;48.632;12.428;2023-11-19T08:07:42;4.90;;;4.50;;
55222;SDS011;41090;48.632;12.428;2023-11-19T08:10:08;4.93;;;4.53;;
55222;SDS011;41090;48.632;12.428;2023-11-19T08:12:35;4.90;;;4.50;;
55222;SDS011;41090;48.632;12.428;2023-11-19T08:15:00;5.50;;;5.07;;
55222;SDS011;41090;48.632;12.428;2023-11-19T08:17:25;5.43;;;5.03;;
55222;SDS011;41090;48.632;12.428;2023-11-19T08:19:50;5.00;;;4.60;;
55222;SDS011;41090;48.632;12.428;2023-11-19T08:22:16;5.23;;;4.83;;
55222;SDS011;41090;48.632;12.428;2023-11-19T08:24:41;6.03;;;5.53;;
55222;SDS011;41090;48.632;12.428;2023-11-19T08:27:07;7.93;;;7.23;;
55222;SDS011;41090;48.632;12.428;2023-11-19T08:29:32;5.83;;;5.37;;
55222;SDS011;41090;48.632;12.428;2023-11-19T08:31:58;6.03;;;5.53;;
55222;SDS011;41090;48.632;12.428;2023-11-19T08:34:25;6.63;;;6.03;;
55222;SDS011;41090;48.632;12.428;2023-11-19T08:36:50;5.83;;;5.33;;
55222;SDS011;41090;48.632;12.428;2023-11-19T08:39:18;5.33;;;4.93;;
55222;SDS011;41090;48.632;12.428;2023-11-19T08:41:43;5.40;;;4.90;;
55222;SDS011;41090;48.632;12.428;2023-11-19T08:44:09;4.70;;;4.30;;
55222;SDS011;41090;48.632;12.428;2023-11-19T08:46:34;6.03;;;5.53;;
55222;SDS011;41090;48.632;12.428;2023-11-19T08:48:59;7.77;;;7.17;;
55222;SDS011;41090;48.632;12.428;2023-11-19T08:51:25;9.70;;;8.80;;
55222;SDS011;41090;48.632;12.428;2023-11-19T08:53:50;9.30;;;8.50;;
55222;SDS011;41090;48.632;12.428;2023-11-19T08:56:15;9.20;;;8.50;;
55222;SDS011;41090;48.632;12.428;2023-11-19T08:58:41;10.27;;;9.40;;
55222;SDS011;41090;48.632;12.428;2023-11-19T09:01:06;10.43;;;9.57;;
55222;SDS011;41090;48.632;12.428;2023-11-19T09:03:31;11.20;;;10.03;;
55222;SDS011;41090;48.632;12.428;2023-11-19T09:06:00;17.43;;;13.63;;
55222;SDS011;41090;48.632;12.428;2023-11-19T09:08:25;15.97;;;14.27;;
55222;SDS011;41090;48.632;12.428;2023-11-19T09:10:50;13.50;;;12.07;;
55222;SDS011;41090;48.632;12.428;2023-11-19T09:13:16;11.63;;;10.43;;
55222;SDS011;41090;48.632;12.428;2023-11-19T09:15:41;11.87;;;9.63;;
55222;SDS011;41090;48.632;12.428;2023-11-19T09:18:07;12.10;;;10.07;;
55222;SDS011;41090;48.632;12.428;2023-11-19T09:20:32;15.67;;;12.07;;
55222;SDS011;41090;48.632;12.428;2023-11-19T09:23:03;14.17;;;12.67;;
55222;SDS011;41090;48.632;12.428;2023-11-19T09:25:28;14.17;;;12.77;;
55222;SDS011;41090;48.632;12.428;2023-11-19T09:27:53;15.73;;;13.20;;
55222;SDS011;41090;48.632;12.428;2023-11-19T09:30:19;20.03;;;15.23;;
55222;SDS011;41090;48.632;12.428;2023-11-19T09:32:44;24.40;;;21.80;;
55222;SDS011;41090;48.632;12.428;2023-11-19T09:35:09;21.33;;;19.17;;
55222;SDS011;41090;48.632;12.428;2023-11-19T09:37:38;7.77;;;6.50;;
55222;SDS011;41090;48.632;12.428;2023-11-19T09:40:03;12.57;;;11.17;;
55222;SDS011;41090;48.632;12.428;2023-11-19T09:42:29;22.33;;;14.43;;
55222;SDS011;41090;48.632;12.428;2023-11-19T09:44:56;33.13;;;21.30;;
55222;SDS011;41090;48.632;12.428;2023-11-19T09:47:22;3.77;;;2.93;;
55222;SDS011;41090;48.632;12.428;2023-11-19T09:49:52;5.77;;;3.97;;
55222;SDS011;41090;48.632;12.428;2023-11-19T09:52:19;10.93;;;7.37;;
55222;SDS011;41090;48.632;12.428;2023-11-19T09:54:44;9.43;;;6.63;;
55222;SDS011;41090;48.632;12.428;2023-11-19T09:57:09;5.83;;;4.13;;
55222;SDS011;41090;48.632;12.428;2023-11-19T09:59:36;20.20;;;13.67;;
55222;SDS011;41090;48.632;12.428;2023-11-19T10:02:02;6.67;;;4.77;;
55222;SDS011;41090;48.632;12.428;2023-11-19T10:04:29;6.57;;;4.63;;
55222;SDS011;41090;48.632;12.428;2023-11-19T10:06:54;8.40;;;5.80;;
55222;SDS011;41090;48.632;12.428;2023-11-19T10:09:20;2.90;;;1.93;;
55222;SDS011;41090;48.632;12.428;2023-11-19T10:11:45;1.87;;;1.77;;
55222;SDS011;41090;48.632;12.428;2023-11-19T10:14:10;1.70;;;1.60;;
55222;SDS011;41090;48.632;12.428;2023-11-19T10:16:36;1.80;;;1.70;;
55222;SDS011;41090;48.632;12.428;2023-11-19T10:19:03;2.27;;;2.07;;
55222;SDS011;41090;48.632;12.428;2023-11-19T10:21:28;2.53;;;2.33;;
55222;SDS011;41090;48.632;12.428;2023-11-19T10:23:54;1.73;;;1.63;;
55222;SDS011;41090;48.632;12.428;2023-11-19T10:26:22;2.30;;;2.10;;
55222;SDS011;41090;48.632;12.428;2023-11-19T10:28:47;3.47;;;3.17;;
55222;SDS011;41090;48.632;12.428;2023-11-19T10:31:15;2.10;;;1.93;;
55222;SDS011;41090;48.632;12.428;2023-11-19T10:33:41;3.20;;;2.53;;
55222;SDS011;41090;48.632;12.428;2023-11-19T10:36:07;3.63;;;1.87;;
55222;SDS011;41090;48.632;12.428;2023-11-19T10:38:32;2.57;;;2.10;;
55222;SDS011;41090;48.632;12.428;2023-11-19T10:40:58;2.27;;;2.00;;
55222;SDS011;41090;48.632;12.428;2023-11-19T10:43:24;2.30;;;1.83;;
55222;SDS011;41090;48.632;12.428;2023-11-19T10:45:49;2.50;;;2.30;;
55222;SDS011;41090;48.632;12.428;2023-11-19T10:48:15;1.70;;;1.60;;
55222;SDS011;41090;48.632;12.428;2023-11-19T10:50:41;2.80;;;2.07;;
55222;SDS011;41090;48.632;12.428;2023-11-19T10:53:08;2.73;;;2.53;;
55222;SDS011;41090;48.632;12.428;2023-11-19T10:55:37;2.30;;;2.10;;
55222;SDS011;41090;48.632;12.428;2023-11-19T10:58:09;2.00;;;1.77;;
55222;SDS011;41090;48.632;12.428;2023-11-19T11:03:36;2.20;;;1.70;;
55222;SDS011;41090;48.632;12.428;2023-11-19T11:06:04;1.53;;;1.43;;
55222;SDS011;41090;48.632;12.428;2023-11-19T11:08:29;1.80;;;1.60;;
55222;SDS011;41090;48.632;12.428;2023-11-19T11:10:55;1.70;;;1.60;;
55222;SDS011;41090;48.632;12.428;2023-11-19T11:13:24;1.57;;;1.47;;
55222;SDS011;41090;48.632;12.428;2023-11-19T11:15:49;1.90;;;1.80;;
55222;SDS011;41090;48.632;12.428;2023-11-19T11:18:15;1.90;;;1.70;;
55222;SDS011;41090;48.632;12.428;2023-11-19T11:20:40;1.60;;;1.50;;
55222;SDS011;41090;48.632;12.428;2023-11-19T11:25:40;2.90;;;2.60;;
55222;SDS011;41090;48.632;12.428;2023-11-19T11:28:18;1.40;;;1.30;;
55222;SDS011;41090;48.632;12.428;2023-11-19T11:33:32;16.77;;;15.03;;
55222;SDS011;41090;48.632;12.428;2023-11-19T11:36:11;9.23;;;8.33;;
55222;SDS011;41090;48.632;12.428;2023-11-19T11:38:39;3.40;;;2.97;;
55222;SDS011;41090;48.632;12.428;2023-11-19T11:43:49;3.93;;;3.53;;
55222;SDS011;41090;48.632;12.428;2023-11-19T11:46:57;3.43;;;2.80;;
55222;SDS011;41090;48.632;12.428;2023-11-19T11:49:05;3.30;;;2.97;;
55222;SDS011;41090;48.632;12.428;2023-11-19T11:54:09;1.43;;;1.33;;
55222;SDS011;41090;48.632;12.428;2023-11-19T11:56:38;2.43;;;1.93;;
55222;SDS011;41090;48.632;12.428;2023-11-19T11:59:07;1.90;;;1.70;;
55222;SDS011;41090;48.632;12.428;2023-11-19T12:01:32;2.67;;;1.90;;
55222;SDS011;41090;48.632;12.428;2023-11-19T12:03:58;1.70;;;1.60;;
55222;SDS011;41090;48.632;12.428;2023-11-19T12:06:23;2.00;;;1.50;;
55222;SDS011;41090;48.632;12.428;2023-11-19T12:08:49;1.83;;;1.50;;
55222;SDS011;41090;48.632;12.428;2023-11-19T12:11:14;1.47;;;1.37;;
55222;SDS011;41090;48.632;12.428;2023-11-19T12:13:54;1.60;;;1.50;;
55222;SDS011;41090;48.632;12.428;2023-11-19T12:16:24;1.40;;;1.30;;
55222;SDS011;41090;48.632;12.428;2023-11-19T12:18:49;1.83;;;1.50;;
55222;SDS011;41090;48.632;12.428;2023-11-19T12:21:28;2.00;;;1.47;;
55222;SDS011;41090;48.632;12.428;2023-11-19T12:23:54;2.20;;;1.60;;
55222;SDS011;41090;48.632;12.428;2023-11-19T12:26:38;2.37;;;1.90;;
55222;SDS011;41090;48.632;12.428;2023-11-19T12:29:04;3.67;;;2.93;;
55222;SDS011;41090;48.632;12.428;2023-11-19T12:31:31;2.33;;;2.13;;
55222;SDS011;41090;48.632;12.428;2023-11-19T12:33:56;1.80;;;1.70;;
55222;SDS011;41090;48.632;12.428;2023-11-19T12:36:21;1.70;;;1.40;;
55222;SDS011;41090;48.632;12.428;2023-11-19T12:38:46;3.60;;;2.80;;
55222;SDS011;41090;48.632;12.428;2023-11-19T12:41:12;2.30;;;1.93;;
55222;SDS011;41090;48.632;12.428;2023-11-19T12:43:38;4.77;;;3.53;;
55222;SDS011;41090;48.632;12.428;2023-11-19T12:46:16;3.33;;;2.63;;
55222;SDS011;41090;48.632;12.428;2023-11-19T12:48:41;3.83;;;2.67;;
55222;SDS011;41090;48.632;12.428;2023-11-19T12:51:07;5.00;;;3.93;;
55222;SDS011;41090;48.632;12.428;2023-11-19T12:53:46;3.87;;;2.90;;
55222;SDS011;41090;48.632;12.428;2023-11-19T12:56:12;3.03;;;2.43;;
55222;SDS011;41090;48.632;12.428;2023-11-19T12:58:37;2.50;;;2.10;;
55222;SDS011;41090;48.632;12.428;2023-11-19T13:01:04;2.17;;;1.93;;
55222;SDS011;41090;48.632;12.428;2023-11-19T13:03:33;5.10;;;3.03;;
55222;SDS011;41090;48.632;12.428;2023-11-19T13:06:05;5.13;;;2.40;;
55222;SDS011;41090;48.632;12.428;2023-11-19T13:08:42;3.40;;;2.80;;
55222;SDS011;41090;48.632;12.428;2023-11-19T13:11:08;4.77;;;3.53;;
55222;SDS011;41090;48.632;12.428;2023-11-19T13:16:17;2.30;;;1.47;;
55222;SDS011;41090;48.632;12.428;2023-11-19T13:18:43;1.87;;;1.50;;
55222;SDS011;41090;48.632;12.428;2023-11-19T13:21:09;2.30;;;1.40;;
55222;SDS011;41090;48.632;12.428;2023-11-19T13:23:34;2.20;;;1.10;;
55222;SDS011;41090;48.632;12.428;2023-11-19T13:25:59;1.77;;;1.13;;
55222;SDS011;41090;48.632;12.428;2023-11-19T13:28:24;1.53;;;1.20;;
55222;SDS011;41090;48.632;12.428;2023-11-19T13:30:51;1.50;;;1.40;;
55222;SDS011;41090;48.632;12.428;2023-11-19T13:33:16;1.40;;;1.30;;
55222;SDS011;41090;48.632;12.428;2023-11-19T13:35:42;1.93;;;1.00;;
55222;SDS011;41090;48.632;12.428;2023-11-19T13:38:07;1.43;;;1.33;;
55222;SDS011;41090;48.632;12.428;2023-11-19T13:40:33;1.50;;;1.30;;
55222;SDS011;41090;48.632;12.428;2023-11-19T13:42:59;1.40;;;1.20;;
55222;SDS011;41090;48.632;12.428;2023-11-19T13:45:24;1.50;;;1.40;;
55222;SDS011;41090;48.632;12.428;2023-11-19T13:47:49;1.40;;;1.20;;
55222;SDS011;41090;48.632;12.428;2023-11-19T13:50:15;1.50;;;1.30;;
55222;SDS011;41090;48.632;12.428;2023-11-19T13:52:42;1.90;;;1.70;;
55222;SDS011;41090;48.632;12.428;2023-11-19T13:55:08;2.40;;;2.20;;
55222;SDS011;41090;48.632;12.428;2023-11-19T13:57:36;1.70;;;1.60;;
55222;SDS011;41090;48.632;12.428;2023-11-19T14:00:02;1.50;;;1.40;;
55222;SDS011;41090;48.632;12.428;2023-11-19T14:02:31;1.83;;;1.70;;
55222;SDS011;41090;48.632;12.428;2023-11-19T14:04:56;2.40;;;1.53;;
55222;SDS011;41090;48.632;12.428;2023-11-19T14:07:22;1.50;;;1.37;;
55222;SDS011;41090;48.632;12.428;2023-11-19T14:09:47;2.17;;;1.63;;
55222;SDS011;41090;48.632;12.428;2023-11-19T14:12:12;2.23;;;1.60;;
55222;SDS011;41090;48.632;12.428;2023-11-19T14:14:38;1.70;;;1.60;;
55222;SDS011;41090;48.632;12.428;2023-11-19T14:17:04;2.10;;;1.90;;
55222;SDS011;41090;48.632;12.428;2023-11-19T14:19:29;2.57;;;1.90;;
55222;SDS011;41090;48.632;12.428;2023-11-19T14:21:54;3.53;;;3.23;;
55222;SDS011;41090;48.632;12.428;2023-11-19T14:24:20;1.97;;;1.80;;
55222;SDS011;41090;48.632;12.428;2023-11-19T14:26:46;2.27;;;2.00;;
55222;SDS011;41090;48.632;12.428;2023-11-19T14:29:12;3.83;;;2.20;;
55222;SDS011;41090;48.632;12.428;2023-11-19T14:31:37;3.40;;;2.90;;
55222;SDS011;41090;48.632;12.428;2023-11-19T14:34:03;3.00;;;2.80;;
55222;SDS011;41090;48.632;12.428;2023-11-19T14:36:28;1.80;;;1.60;;
55222;SDS011;41090;48.632;12.428;2023-11-19T14:38:53;9.33;;;7.90;;
55222;SDS011;41090;48.632;12.428;2023-11-19T14:41:19;8.27;;;6.73;;
55222;SDS011;41090;48.632;12.428;2023-11-19T14:43:44;4.63;;;4.07;;
55222;SDS011;41090;48.632;12.428;2023-11-19T14:46:09;3.00;;;2.70;;